Time;durP1;ratioP1;P1;durP2;ratioP2;P2;SDS_P1;SDS_P2;PMS_P1;PMS_P2;Temp;Humidity;BMP_temperature;BMP_pressure;BME280_temperature;BME280_humidity;BME280_pressure;Samples;Min_cycle;Max_cycle;Signal;HPM_P1;HPM_P2
2022/03/02 00:02:14;;;;;;;13.45;7.55;;;21.70;38.00;;;;;;4992202;28;20144;-57
2022/03/02 00:04:40;;;;;;;11.98;6.90;;;21.60;38.00;;;;;;4995129;28;20050;-57
2022/03/02 00:07:06;;;;;;;7.55;6.45;;;21.60;38.00;;;;;;4994021;28;20049;-57
2022/03/02 00:09:31;;;;;;;12.93;7.60;;;21.60;37.90;;;;;;4991669;28;20055;-57
2022/03/02 00:11:57;;;;;;;7.75;6.95;;;21.60;37.90;;;;;;4991751;28;20065;-57
2022/03/02 00:14:23;;;;;;;8.60;6.95;;;21.60;38.00;;;;;;4992767;28;20049;-57
2022/03/02 00:16:49;;;;;;;10.50;6.60;;;21.50;37.90;;;;;;4989327;28;20061;-58
2022/03/02 00:19:15;;;;;;;11.32;7.40;;;21.50;37.90;;;;;;4993489;28;20053;-58
2022/03/02 00:21:40;;;;;;;8.85;7.05;;;21.50;38.00;;;;;;4989261;28;20073;-57
2022/03/02 00:24:06;;;;;;;9.68;7.25;;;21.50;37.90;;;;;;4993400;28;20061;-57
2022/03/02 00:26:32;;;;;;;9.57;7.07;;;21.50;38.00;;;;;;4992973;28;20673;-60
2022/03/02 00:28:59;;;;;;;8.32;6.88;;;21.40;37.90;;;;;;4992012;28;20049;-58
2022/03/02 00:31:24;;;;;;;7.95;7.00;;;21.50;38.00;;;;;;4989167;28;20096;-58
2022/03/02 00:33:51;;;;;;;7.82;6.68;;;21.40;37.90;;;;;;4992028;28;20050;-57
2022/03/02 00:36:16;;;;;;;8.73;7.65;;;21.40;37.90;;;;;;4991403;28;20084;-58
2022/03/02 00:38:42;;;;;;;11.10;6.82;;;21.40;37.90;;;;;;4991040;28;20156;-58
2022/03/02 00:41:08;;;;;;;9.75;6.93;;;21.40;38.00;;;;;;4988920;28;20074;-58
2022/03/02 00:43:34;;;;;;;8.23;6.97;;;21.40;38.00;;;;;;4992040;28;20157;-58
2022/03/02 00:45:59;;;;;;;7.80;6.47;;;21.40;37.90;;;;;;4988281;28;20068;-58
2022/03/02 00:48:25;;;;;;;8.35;6.90;;;21.30;37.90;;;;;;4996972;28;20057;-57
2022/03/02 00:50:51;;;;;;;7.82;6.65;;;21.30;37.90;;;;;;4990928;28;20104;-60
2022/03/02 00:53:17;;;;;;;7.93;6.53;;;21.30;37.90;;;;;;4990179;28;20065;-58
2022/03/02 00:55:42;;;;;;;9.00;7.38;;;21.20;37.90;;;;;;4992519;28;20121;-58
2022/03/02 00:58:08;;;;;;;8.32;6.57;;;21.20;37.90;;;;;;4991350;28;20153;-58
2022/03/02 01:00:34;;;;;;;9.05;7.35;;;21.20;37.90;;;;;;4988487;28;20046;-58
2022/03/02 01:03:00;;;;;;;7.75;6.97;;;21.20;37.90;;;;;;4992202;28;20057;-58
2022/03/02 01:05:25;;;;;;;9.18;7.25;;;21.20;37.90;;;;;;4992086;28;20054;-59
2022/03/02 01:07:51;;;;;;;12.30;6.75;;;21.20;37.90;;;;;;4990012;28;20038;-59
2022/03/02 01:10:18;;;;;;;9.50;7.78;;;21.10;37.90;;;;;;4990476;28;20046;-59
2022/03/02 01:12:44;;;;;;;7.57;6.30;;;21.10;37.90;;;;;;4991959;28;20047;-57
2022/03/02 01:15:10;;;;;;;9.80;7.43;;;21.10;37.90;;;;;;4986414;28;20405;-58
2022/03/02 01:17:37;;;;;;;11.48;7.07;;;21.10;37.90;;;;;;4991999;28;20136;-57
2022/03/02 01:20:07;;;;;;;10.38;7.78;;;21.10;38.00;;;;;;4974850;28;20053;-60
2022/03/02 01:22:34;;;;;;;7.90;7.13;;;21.10;38.00;;;;;;4997490;28;20046;-57
2022/03/02 01:25:00;;;;;;;10.35;7.47;;;21.10;37.90;;;;;;4994558;28;20058;-58
2022/03/02 01:27:25;;;;;;;7.82;7.00;;;21.00;37.90;;;;;;4992348;28;20038;-57
2022/03/02 01:29:51;;;;;;;7.80;7.00;;;21.10;37.90;;;;;;4993552;28;20041;-58
2022/03/02 01:32:18;;;;;;;8.32;7.45;;;21.00;37.90;;;;;;4994711;28;20112;-59
2022/03/02 01:34:44;;;;;;;9.20;7.53;;;21.00;37.90;;;;;;4994547;28;20050;-59
2022/03/02 01:37:10;;;;;;;9.07;7.40;;;21.00;37.90;;;;;;4995527;28;20052;-58
2022/03/02 01:39:36;;;;;;;7.97;7.10;;;21.00;38.00;;;;;;4995745;28;20050;-57
2022/03/02 01:42:03;;;;;;;8.38;6.97;;;20.90;37.90;;;;;;4992320;28;20128;-57
2022/03/02 01:44:28;;;;;;;8.98;7.22;;;20.90;37.90;;;;;;4992307;28;20039;-59
2022/03/02 01:46:55;;;;;;;8.63;7.25;;;20.90;37.90;;;;;;4998273;28;20050;-58
2022/03/02 01:49:20;;;;;;;9.25;7.40;;;20.90;37.90;;;;;;4993115;28;20429;-59
2022/03/02 01:51:46;;;;;;;10.15;6.65;;;20.90;38.00;;;;;;4995891;28;20042;-58
2022/03/02 01:54:12;;;;;;;10.77;7.50;;;20.90;38.10;;;;;;5000477;28;20045;-58
2022/03/02 01:56:37;;;;;;;8.52;6.95;;;20.80;37.90;;;;;;4992572;28;20279;-58
2022/03/02 01:59:04;;;;;;;15.80;7.95;;;20.80;37.90;;;;;;4992342;28;20042;-61
2022/03/02 02:01:30;;;;;;;10.63;7.35;;;20.90;38.10;;;;;;5011161;28;20049;-60
2022/03/02 02:03:56;;;;;;;9.45;7.57;;;20.90;38.10;;;;;;4992712;28;20046;-59
2022/03/02 02:06:22;;;;;;;7.88;7.00;;;20.80;38.10;;;;;;4992048;28;20062;-58
2022/03/02 02:08:48;;;;;;;13.70;7.43;;;20.80;38.10;;;;;;4994952;28;20478;-57
2022/03/02 02:11:14;;;;;;;8.52;7.00;;;20.80;38.10;;;;;;4990760;28;20512;-58
2022/03/02 02:13:40;;;;;;;9.57;6.68;;;20.80;38.20;;;;;;4994881;28;20045;-58
2022/03/02 02:16:07;;;;;;;9.30;6.82;;;20.80;38.20;;;;;;4993624;28;20042;-58
2022/03/02 02:18:33;;;;;;;8.02;7.15;;;20.80;38.20;;;;;;4991997;28;20052;-59
2022/03/02 02:21:04;;;;;;;8.90;7.47;;;20.80;38.20;;;;;;4993621;28;20085;-58
2022/03/02 02:23:29;;;;;;;7.60;6.85;;;20.80;38.30;;;;;;4991903;28;20596;-59
2022/03/02 02:25:55;;;;;;;9.75;7.55;;;20.80;38.30;;;;;;4992229;28;20091;-60
2022/03/02 02:28:24;;;;;;;8.05;7.20;;;20.80;38.30;;;;;;4994153;28;20721;-60
2022/03/02 02:30:53;;;;;;;7.63;6.90;;;20.80;38.40;;;;;;5009287;28;20040;-58
2022/03/02 02:33:19;;;;;;;8.73;6.90;;;20.70;38.40;;;;;;4994223;28;20053;-58
2022/03/02 02:35:44;;;;;;;8.35;7.00;;;20.70;38.30;;;;;;4996552;28;20046;-57
2022/03/02 02:38:10;;;;;;;8.02;6.53;;;20.70;38.40;;;;;;4991576;28;20145;-58
2022/03/02 02:40:36;;;;;;;8.80;7.30;;;20.70;38.40;;;;;;4993836;28;20050;-58
2022/03/02 02:43:04;;;;;;;7.93;7.07;;;20.70;38.40;;;;;;4993765;28;20042;-60
2022/03/02 02:45:29;;;;;;;8.40;7.10;;;20.70;38.40;;;;;;4992293;28;20758;-60
2022/03/02 02:47:56;;;;;;;7.95;7.00;;;20.70;38.40;;;;;;4993137;28;20045;-59
2022/03/02 02:50:31;;;;;;;8.90;7.35;;;20.60;38.40;;;;;;4992563;28;20085;-57
2022/03/02 02:52:58;;;;;;;8.63;7.68;;;20.70;38.40;;;;;;4990497;28;20069;-58
2022/03/02 02:55:25;;;;;;;9.27;7.60;;;20.60;38.30;;;;;;4992635;28;20077;-58
2022/03/02 02:57:52;;;;;;;7.97;7.28;;;20.60;38.40;;;;;;4991124;28;20042;-60
2022/03/02 03:00:22;;;;;;;8.38;7.57;;;20.60;38.40;;;;;;4989138;28;20047;-57
2022/03/02 03:02:50;;;;;;;7.65;6.93;;;20.60;38.40;;;;;;4988967;28;20421;-58
2022/03/02 03:05:19;;;;;;;9.10;8.20;;;20.60;38.50;;;;;;4987960;28;20053;-57
2022/03/02 03:07:45;;;;;;;8.05;7.35;;;20.60;38.40;;;;;;4991176;28;20038;-59
2022/03/02 03:10:12;;;;;;;7.57;6.65;;;20.60;38.50;;;;;;4993188;28;20050;-66
2022/03/02 03:12:39;;;;;;;8.30;7.50;;;20.60;38.50;;;;;;4991921;28;20057;-59
2022/03/02 03:15:07;;;;;;;7.93;7.07;;;20.60;38.50;;;;;;4992838;28;20062;-58
2022/03/02 03:17:33;;;;;;;7.93;7.20;;;20.60;38.50;;;;;;4993755;28;20054;-57
2022/03/02 03:19:59;;;;;;;8.88;7.20;;;20.50;38.40;;;;;;4990111;28;20046;-58
2022/03/02 03:22:25;;;;;;;8.43;7.63;;;20.50;38.40;;;;;;4996105;28;20093;-58
2022/03/02 03:24:52;;;;;;;8.25;7.40;;;20.50;39.20;;;;;;4991916;28;20084;-57
2022/03/02 03:27:18;;;;;;;8.50;7.70;;;20.50;38.40;;;;;;4991881;28;20043;-58
2022/03/02 03:29:43;;;;;;;8.95;7.82;;;20.50;38.40;;;;;;4993157;28;20413;-58
2022/03/02 03:32:09;;;;;;;8.45;7.65;;;20.50;38.50;;;;;;4991936;28;20059;-58
2022/03/02 03:34:35;;;;;;;7.88;7.18;;;20.50;38.50;;;;;;4989905;28;20125;-59
2022/03/02 03:37:00;;;;;;;8.55;7.75;;;20.40;38.40;;;;;;4990640;28;20050;-59
2022/03/02 03:39:26;;;;;;;8.77;7.95;;;20.40;38.40;;;;;;4991304;28;20517;-58
2022/03/02 03:41:51;;;;;;;8.32;7.53;;;20.40;38.40;;;;;;4993319;28;20311;-58
2022/03/02 03:44:17;;;;;;;8.80;8.00;;;20.40;38.40;;;;;;4991909;28;20041;-58
2022/03/02 03:46:43;;;;;;;8.52;7.68;;;20.40;38.50;;;;;;4992100;28;20056;-58
2022/03/02 03:49:09;;;;;;;7.95;7.15;;;20.40;38.40;;;;;;4989479;28;20706;-59
2022/03/02 03:51:35;;;;;;;8.45;7.68;;;20.40;38.50;;;;;;4991935;28;20072;-59
2022/03/02 03:54:01;;;;;;;8.95;8.05;;;20.40;38.40;;;;;;4992348;28;20069;-58
2022/03/02 03:56:30;;;;;;;9.23;8.10;;;20.40;38.40;;;;;;5006286;28;20042;-58
2022/03/02 03:58:58;;;;;;;8.82;7.60;;;20.40;38.40;;;;;;4991601;28;20045;-59
2022/03/02 04:01:24;;;;;;;8.90;8.00;;;20.30;38.40;;;;;;4992737;28;20085;-59
2022/03/02 04:03:49;;;;;;;8.68;7.78;;;20.40;38.40;;;;;;4987660;28;20184;-59
2022/03/02 04:06:16;;;;;;;8.63;7.82;;;20.40;38.40;;;;;;4976980;28;20159;-60
2022/03/02 04:08:42;;;;;;;8.25;7.35;;;20.40;39.00;;;;;;4991508;28;20108;-59
2022/03/02 04:11:08;;;;;;;8.60;7.90;;;20.30;38.40;;;;;;4995609;28;20044;-58
2022/03/02 04:13:33;;;;;;;9.23;8.32;;;20.30;38.40;;;;;;4993772;28;20049;-61
2022/03/02 04:15:59;;;;;;;8.65;7.78;;;20.30;38.40;;;;;;4987849;28;20046;-60
2022/03/02 04:18:25;;;;;;;9.00;8.10;;;20.30;38.40;;;;;;4992299;28;20193;-58
2022/03/02 04:20:52;;;;;;;9.15;8.25;;;20.30;38.40;;;;;;4997558;28;20045;-58
2022/03/02 04:23:18;;;;;;;9.20;8.23;;;20.30;38.40;;;;;;4993246;28;20077;-58
2022/03/02 04:25:43;;;;;;;9.73;8.85;;;20.30;38.40;;;;;;4992939;28;20081;-59
2022/03/02 04:28:09;;;;;;;8.80;7.90;;;20.30;38.40;;;;;;4996521;28;20053;-59
2022/03/02 04:30:35;;;;;;;8.85;7.95;;;20.30;38.40;;;;;;4988819;28;20061;-59
2022/03/02 04:33:00;;;;;;;9.20;8.32;;;20.30;38.40;;;;;;4991097;28;20438;-58
2022/03/02 04:35:26;;;;;;;8.75;7.95;;;20.30;38.30;;;;;;4991422;28;20137;-58
2022/03/02 04:37:52;;;;;;;8.35;7.63;;;20.30;38.40;;;;;;4993297;28;20488;-59
2022/03/02 04:40:18;;;;;;;9.00;8.15;;;20.30;38.40;;;;;;4973106;28;20077;-59
2022/03/02 04:42:43;;;;;;;9.10;8.23;;;20.20;38.30;;;;;;4993972;28;20039;-58
2022/03/02 04:45:10;;;;;;;9.60;8.35;;;20.20;38.30;;;;;;4988723;28;20137;-59
2022/03/02 04:47:36;;;;;;;9.00;8.10;;;20.20;38.30;;;;;;4994177;28;20557;-58
2022/03/02 04:50:02;;;;;;;8.23;7.53;;;20.20;38.30;;;;;;4991790;28;20046;-58
2022/03/02 04:52:28;;;;;;;8.77;7.88;;;20.20;38.30;;;;;;4990748;28;20085;-57
2022/03/02 04:55:06;;;;;;;8.98;8.15;;;20.20;38.30;;;;;;4993380;28;20189;-59
2022/03/02 04:57:45;;;;;;;9.32;8.38;;;20.20;38.30;;;;;;4995420;28;20096;-59
2022/03/02 05:00:17;;;;;;;9.95;8.95;;;20.20;38.30;;;;;;5010156;28;20050;-59
2022/03/02 05:02:43;;;;;;;9.07;8.23;;;20.20;38.40;;;;;;4992912;28;20107;-59
2022/03/02 05:05:12;;;;;;;9.10;8.23;;;20.20;38.40;;;;;;4995143;28;20041;-58
2022/03/02 05:07:39;;;;;;;8.25;7.45;;;20.20;38.40;;;;;;4995002;28;20056;-59
2022/03/02 05:10:06;;;;;;;9.00;8.13;;;20.10;38.40;;;;;;4995084;28;20050;-59
2022/03/02 05:12:32;;;;;;;9.38;8.48;;;20.20;38.40;;;;;;4991977;28;20046;-58
2022/03/02 05:14:57;;;;;;;8.57;7.78;;;20.20;38.40;;;;;;4995098;28;20042;-60
2022/03/02 05:17:24;;;;;;;8.80;8.00;;;20.20;38.40;;;;;;4994289;28;20090;-60
2022/03/02 05:19:50;;;;;;;8.77;7.97;;;20.10;38.30;;;;;;4992628;28;20052;-58
2022/03/02 05:22:16;;;;;;;9.68;8.63;;;20.10;38.30;;;;;;4996526;28;20046;-59
2022/03/02 05:24:42;;;;;;;9.35;8.48;;;20.10;38.30;;;;;;4993977;28;20046;-59
2022/03/02 05:27:08;;;;;;;8.65;7.85;;;20.10;38.30;;;;;;4992844;28;20057;-58
2022/03/02 05:29:35;;;;;;;10.20;9.20;;;20.10;38.40;;;;;;4996190;28;20137;-58
2022/03/02 05:32:00;;;;;;;8.80;8.00;;;20.10;38.40;;;;;;4996979;28;20062;-58
2022/03/02 05:34:26;;;;;;;9.57;8.30;;;20.10;38.50;;;;;;4996122;28;20412;-58
2022/03/02 05:36:51;;;;;;;8.95;8.05;;;20.10;38.50;;;;;;4994058;28;20054;-58
2022/03/02 05:39:17;;;;;;;10.48;8.45;;;20.10;38.50;;;;;;4996993;28;20054;-58
2022/03/02 05:41:43;;;;;;;8.65;7.75;;;20.10;38.50;;;;;;4992724;28;20057;-58
2022/03/02 05:44:09;;;;;;;9.13;8.30;;;20.10;38.50;;;;;;4995041;28;20073;-58
2022/03/02 05:46:35;;;;;;;8.60;7.80;;;20.00;38.50;;;;;;4994403;28;20053;-59
2022/03/02 05:49:02;;;;;;;9.10;8.25;;;20.10;38.50;;;;;;4995919;28;20961;-60
2022/03/02 05:51:29;;;;;;;14.10;8.68;;;20.00;38.50;;;;;;4996269;28;20049;-58
2022/03/02 05:53:54;;;;;;;10.50;8.75;;;20.10;38.50;;;;;;4995061;28;20045;-58
2022/03/02 05:56:20;;;;;;;9.38;8.43;;;20.00;38.50;;;;;;4991670;28;20478;-58
2022/03/02 05:58:45;;;;;;;10.30;8.85;;;20.00;38.50;;;;;;4995346;28;20044;-60
2022/03/02 06:01:11;;;;;;;8.65;7.85;;;20.00;38.50;;;;;;4993742;28;20053;-60
2022/03/02 06:03:36;;;;;;;8.90;8.00;;;20.00;38.50;;;;;;4995022;28;20070;-58
2022/03/02 06:06:04;;;;;;;9.05;8.15;;;20.00;38.60;;;;;;4996044;28;20133;-58
2022/03/02 06:08:29;;;;;;;9.15;8.25;;;20.00;38.50;;;;;;4989754;28;20042;-58
2022/03/02 06:10:55;;;;;;;9.02;8.13;;;20.10;38.60;;;;;;4992049;28;20050;-57
2022/03/02 06:13:21;;;;;;;9.32;8.43;;;20.10;38.60;;;;;;4994465;28;20124;-59
2022/03/02 06:15:46;;;;;;;10.45;8.73;;;20.00;38.60;;;;;;4994897;28;20045;-58
2022/03/02 06:18:12;;;;;;;8.70;7.82;;;20.10;38.60;;;;;;4994479;28;20477;-57
2022/03/02 06:20:40;;;;;;;9.45;8.45;;;20.00;38.60;;;;;;4993509;28;20059;-58
2022/03/02 06:23:06;;;;;;;8.98;8.07;;;20.00;38.50;;;;;;4992735;28;20051;-58
2022/03/02 06:25:32;;;;;;;9.02;8.07;;;20.10;38.60;;;;;;4978237;28;20046;-59
2022/03/02 06:27:57;;;;;;;8.65;7.85;;;20.10;38.70;;;;;;4995061;28;20046;-58
2022/03/02 06:30:23;;;;;;;9.63;8.60;;;20.10;38.60;;;;;;4994027;28;20046;-58
2022/03/02 06:32:48;;;;;;;8.65;7.85;;;20.10;38.60;;;;;;5001031;28;20101;-57
2022/03/02 06:35:14;;;;;;;9.18;7.82;;;20.10;38.60;;;;;;4995153;28;20050;-58
2022/03/02 06:37:40;;;;;;;8.65;7.28;;;20.10;38.70;;;;;;4991887;28;20104;-57
2022/03/02 06:40:10;;;;;;;7.97;7.18;;;20.10;38.70;;;;;;4994033;28;20790;-58
2022/03/02 06:42:51;;;;;;;7.43;6.65;;;20.20;38.80;;;;;;4992593;28;20341;-58
2022/03/02 06:45:23;;;;;;;7.82;7.07;;;20.10;38.70;;;;;;4993493;28;20057;-58
2022/03/02 06:47:56;;;;;;;6.95;6.35;;;20.20;38.80;;;;;;4994077;28;20038;-59
2022/03/02 06:50:25;;;;;;;7.78;6.97;;;20.20;38.80;;;;;;4994663;28;20788;-57
2022/03/02 06:52:54;;;;;;;7.80;7.00;;;20.20;38.80;;;;;;5005680;28;20058;-57
2022/03/02 06:55:21;;;;;;;7.70;6.80;;;20.20;38.80;;;;;;4995302;28;20049;-58
2022/03/02 06:57:52;;;;;;;7.78;6.97;;;20.20;38.70;;;;;;4995336;28;20060;-57
2022/03/02 07:00:18;;;;;;;7.50;6.78;;;20.20;38.70;;;;;;4987609;28;20557;-58
2022/03/02 07:02:48;;;;;;;7.97;7.18;;;20.20;38.70;;;;;;4990150;28;20046;-58
2022/03/02 07:05:14;;;;;;;8.25;7.40;;;20.20;38.90;;;;;;4992224;28;21044;-57
2022/03/02 07:07:40;;;;;;;10.00;7.28;;;20.20;38.90;;;;;;4992450;28;20046;-57
2022/03/02 07:10:08;;;;;;;8.18;7.38;;;20.20;39.00;;;;;;4992896;28;20148;-59
2022/03/02 07:12:34;;;;;;;8.77;7.88;;;20.20;39.10;;;;;;4994227;28;20049;-58
2022/03/02 07:15:00;;;;;;;7.72;7.03;;;20.30;39.20;;;;;;4991612;28;20093;-57
2022/03/02 07:17:27;;;;;;;9.65;7.65;;;20.30;39.20;;;;;;4992856;28;20046;-59
2022/03/02 07:19:52;;;;;;;7.70;6.97;;;20.30;39.30;;;;;;4990481;28;20252;-58
2022/03/02 07:22:22;;;;;;;9.25;8.35;;;20.30;39.30;;;;;;4993381;28;20464;-58
2022/03/02 07:24:58;;;;;;;7.55;6.93;;;20.30;39.30;;;;;;4993263;28;20061;-57
2022/03/02 07:27:25;;;;;;;8.15;7.30;;;20.30;39.40;;;;;;4992902;28;20881;-57
2022/03/02 07:29:52;;;;;;;8.93;7.93;;;20.30;39.50;;;;;;4993717;28;20046;-60
2022/03/02 07:32:22;;;;;;;8.00;7.30;;;20.30;39.40;;;;;;4990862;28;20135;-59
2022/03/02 07:34:54;;;;;;;8.30;7.13;;;20.40;39.60;;;;;;4987345;28;20034;-58
2022/03/02 07:37:20;;;;;;;9.13;7.97;;;20.40;39.60;;;;;;4995062;28;20407;-59
2022/03/02 07:39:46;;;;;;;9.65;7.15;;;20.40;39.90;;;;;;4991187;28;20046;-58
2022/03/02 07:42:12;;;;;;;8.18;7.38;;;20.40;40.10;;;;;;4976762;28;20050;-58
2022/03/02 07:44:37;;;;;;;8.50;7.38;;;20.40;40.40;;;;;;4992150;28;20093;-58
2022/03/02 07:47:03;;;;;;;8.73;7.82;;;20.40;40.50;;;;;;4988077;28;20540;-58
2022/03/02 07:49:30;;;;;;;8.48;7.57;;;20.40;40.50;;;;;;4992467;28;20050;-58
2022/03/02 07:51:57;;;;;;;9.77;8.00;;;20.40;40.50;;;;;;4991227;28;20058;-59
2022/03/02 07:54:28;;;;;;;9.32;7.90;;;20.50;40.80;;;;;;4989646;28;20580;-60
2022/03/02 07:56:54;;;;;;;8.10;7.30;;;20.40;40.80;;;;;;4991554;28;20654;-59
2022/03/02 07:59:21;;;;;;;8.38;7.57;;;20.40;40.80;;;;;;4990750;28;20065;-61
2022/03/02 08:01:47;;;;;;;8.77;7.97;;;20.50;40.80;;;;;;4985086;28;20253;-59
2022/03/02 08:04:14;;;;;;;8.82;7.85;;;20.50;40.80;;;;;;4988129;28;20159;-60
2022/03/02 08:06:41;;;;;;;8.73;7.82;;;20.50;40.90;;;;;;4991176;28;20050;-59
2022/03/02 08:09:08;;;;;;;8.52;7.22;;;20.50;40.80;;;;;;4978606;28;20875;-58
2022/03/02 08:11:40;;;;;;;8.07;7.28;;;20.50;40.90;;;;;;4994219;28;20100;-59
2022/03/02 08:14:07;;;;;;;8.55;7.50;;;20.50;41.00;;;;;;4984821;28;20046;-59
2022/03/02 08:16:33;;;;;;;8.35;7.05;;;20.50;41.00;;;;;;4984551;28;20045;-60
2022/03/02 08:19:02;;;;;;;8.30;7.47;;;20.50;41.00;;;;;;4991002;28;20043;-58
2022/03/02 08:21:32;;;;;;;8.23;7.30;;;20.50;41.00;;;;;;4992255;28;20046;-58
2022/03/02 08:24:02;;;;;;;8.00;7.18;;;20.50;41.00;;;;;;4991639;28;20053;-58
2022/03/02 08:26:32;;;;;;;8.73;7.82;;;20.50;41.00;;;;;;4989342;28;20042;-60
2022/03/02 08:29:07;;;;;;;8.30;7.50;;;20.50;40.90;;;;;;4994933;28;20494;-58
2022/03/02 08:31:36;;;;;;;7.88;7.15;;;20.50;41.00;;;;;;4994189;28;20046;-59
2022/03/02 08:34:03;;;;;;;8.55;7.72;;;20.50;40.90;;;;;;4993177;28;20054;-58
2022/03/02 08:36:33;;;;;;;10.25;7.13;;;20.50;40.90;;;;;;4997050;28;20156;-59
2022/03/02 08:39:02;;;;;;;8.25;7.45;;;20.50;40.90;;;;;;4994055;28;20048;-58
2022/03/02 08:41:28;;;;;;;8.07;7.28;;;20.50;40.90;;;;;;4995837;28;20050;-58
2022/03/02 08:43:55;;;;;;;8.00;7.20;;;20.50;40.90;;;;;;4991505;28;20046;-59
2022/03/02 08:46:22;;;;;;;7.82;7.10;;;20.50;41.00;;;;;;4995442;28;20063;-59
2022/03/02 08:48:47;;;;;;;8.40;7.60;;;20.60;41.00;;;;;;4994154;28;20133;-59
2022/03/02 08:51:13;;;;;;;8.20;7.03;;;20.60;41.00;;;;;;4996131;28;20058;-58
2022/03/02 08:53:40;;;;;;;7.75;6.95;;;20.50;40.90;;;;;;4994261;28;20049;-59
2022/03/02 08:56:06;;;;;;;8.02;7.22;;;20.60;41.00;;;;;;4995578;28;20752;-58
2022/03/02 08:58:32;;;;;;;8.00;7.20;;;20.60;41.00;;;;;;4992641;28;20686;-58
2022/03/02 09:01:00;;;;;;;8.20;7.15;;;20.60;41.00;;;;;;4995773;28;20050;-59
2022/03/02 09:03:26;;;;;;;7.80;7.00;;;20.60;40.90;;;;;;4995228;28;20096;-58
2022/03/02 09:05:52;;;;;;;7.93;7.18;;;20.60;41.00;;;;;;4994187;28;20411;-58
2022/03/02 09:08:18;;;;;;;7.57;6.88;;;20.60;41.00;;;;;;4995636;28;20068;-58
2022/03/02 09:10:44;;;;;;;8.40;7.57;;;20.60;40.90;;;;;;4996132;28;20115;-59
2022/03/02 09:13:11;;;;;;;7.47;6.82;;;20.60;41.20;;;;;;4992052;28;20046;-59
2022/03/02 09:15:39;;;;;;;7.95;7.10;;;20.60;40.90;;;;;;4993473;28;20565;-59
2022/03/02 09:18:05;;;;;;;7.15;6.50;;;20.60;40.90;;;;;;5008033;28;20565;-59
2022/03/02 09:20:31;;;;;;;8.45;7.20;;;20.60;40.90;;;;;;4996332;28;20050;-58
2022/03/02 09:23:00;;;;;;;7.85;6.88;;;20.70;40.90;;;;;;4992356;28;20554;-58
2022/03/02 09:25:28;;;;;;;8.20;6.95;;;20.70;40.90;;;;;;4995548;28;20471;-59
2022/03/02 09:27:56;;;;;;;9.68;7.28;;;20.70;40.80;;;;;;4992787;28;20401;-59
2022/03/02 09:30:23;;;;;;;7.15;6.45;;;20.70;40.80;;;;;;4993119;28;20060;-60
2022/03/02 09:32:53;;;;;;;7.55;6.85;;;20.70;40.90;;;;;;4993545;28;20046;-59
2022/03/02 09:35:22;;;;;;;10.82;6.47;;;20.70;41.00;;;;;;4996444;28;20045;-59
2022/03/02 09:37:49;;;;;;;7.43;6.63;;;20.70;41.10;;;;;;4993739;28;20049;-59
2022/03/02 09:40:33;;;;;;;7.97;7.20;;;20.80;41.20;;;;;;4991928;28;20045;-59
2022/03/02 09:43:07;;;;;;;9.05;7.00;;;20.80;41.30;;;;;;4993399;28;20046;-57
2022/03/02 09:45:34;;;;;;;9.50;7.10;;;20.80;41.30;;;;;;5007122;28;20050;-58
2022/03/02 09:48:03;;;;;;;8.43;6.57;;;20.80;41.30;;;;;;4993600;28;20111;-59
2022/03/02 09:50:33;;;;;;;9.13;6.72;;;20.80;41.30;;;;;;4993972;28;20123;-59
2022/03/02 09:53:02;;;;;;;9.05;6.88;;;20.80;41.30;;;;;;4994259;28;20168;-58
2022/03/02 09:55:27;;;;;;;9.80;6.47;;;20.90;41.40;;;;;;4990940;28;20046;-58
2022/03/02 09:57:56;;;;;;;11.63;6.35;;;20.90;41.60;;;;;;4994497;28;20061;-58
2022/03/02 10:00:24;;;;;;;6.53;5.88;;;20.90;41.50;;;;;;4996488;28;20077;-59
2022/03/02 10:02:52;;;;;;;8.80;6.22;;;20.90;41.50;;;;;;4998428;28;20050;-57
2022/03/02 10:05:23;;;;;;;8.00;6.18;;;20.90;41.60;;;;;;4998738;28;20048;-57
2022/03/02 10:07:54;;;;;;;8.55;6.00;;;21.00;41.80;;;;;;4994027;28;20084;-57
2022/03/02 10:10:23;;;;;;;7.75;6.63;;;20.90;41.70;;;;;;4994522;28;20143;-58
2022/03/02 10:12:54;;;;;;;8.70;6.50;;;21.00;41.60;;;;;;4995190;28;20054;-57
2022/03/02 10:15:19;;;;;;;9.43;6.13;;;21.00;41.70;;;;;;4993391;28;20572;-58
2022/03/02 10:17:48;;;;;;;6.95;6.25;;;21.00;41.70;;;;;;4991476;28;20096;-59
2022/03/02 10:20:16;;;;;;;7.05;6.15;;;21.00;41.80;;;;;;4993030;28;20136;-57
2022/03/02 10:22:57;;;;;;;6.25;5.65;;;21.00;41.70;;;;;;4991402;28;20137;-57
2022/03/02 10:25:36;;;;;;;6.85;5.68;;;21.00;41.70;;;;;;4995801;28;20062;-58
2022/03/02 10:28:05;;;;;;;6.63;5.65;;;21.00;41.70;;;;;;4991523;28;20042;-57
2022/03/02 10:30:42;;;;;;;8.43;6.03;;;21.00;41.60;;;;;;4993927;28;20042;-58
2022/03/02 10:33:20;;;;;;;6.75;6.05;;;21.00;41.50;;;;;;4993479;28;20101;-58
2022/03/02 10:36:04;;;;;;;7.65;6.25;;;21.00;41.40;;;;;;4992120;28;20049;-58
2022/03/02 10:38:38;;;;;;;8.63;5.60;;;21.00;41.20;;;;;;4995559;28;20093;-57
2022/03/02 10:41:07;;;;;;;8.55;6.00;;;21.00;41.10;;;;;;4995577;28;20049;-58
2022/03/02 10:43:47;;;;;;;6.65;5.97;;;21.00;41.10;;;;;;4994341;28;20061;-58
2022/03/02 10:46:18;;;;;;;6.82;6.13;;;21.00;41.00;;;;;;4992945;28;20054;-57
2022/03/02 10:49:03;;;;;;;5.93;5.32;;;21.00;41.00;;;;;;4993994;28;20054;-58
2022/03/02 10:51:31;;;;;;;7.00;6.30;;;21.00;40.90;;;;;;4989940;28;20054;-57
2022/03/02 10:54:04;;;;;;;7.55;5.82;;;21.00;41.20;;;;;;4991478;28;20046;-57
2022/03/02 10:56:38;;;;;;;7.85;5.80;;;21.00;40.80;;;;;;4992128;28;20057;-57
2022/03/02 10:59:06;;;;;;;6.47;5.80;;;21.00;40.70;;;;;;4995700;28;20050;-57
2022/03/02 11:01:33;;;;;;;7.57;5.90;;;21.00;40.60;;;;;;4992083;28;20553;-58
2022/03/02 11:03:58;;;;;;;6.30;5.40;;;21.00;40.50;;;;;;5007448;28;20045;-57
2022/03/02 11:06:25;;;;;;;6.22;5.60;;;21.00;40.40;;;;;;4996976;28;20050;-58
2022/03/02 11:08:54;;;;;;;6.90;6.20;;;21.00;40.30;;;;;;4991744;28;20054;-58
2022/03/02 11:11:24;;;;;;;6.20;5.63;;;21.00;40.20;;;;;;4993319;28;20045;-58
2022/03/02 11:13:51;;;;;;;6.18;5.57;;;21.00;40.20;;;;;;4992522;28;20780;-58
2022/03/02 11:16:19;;;;;;;6.30;5.60;;;21.00;40.20;;;;;;4993260;28;20057;-57
2022/03/02 11:18:52;;;;;;;6.50;5.90;;;21.00;40.20;;;;;;4992230;28;20121;-59
2022/03/02 11:21:39;;;;;;;6.40;5.80;;;21.00;40.20;;;;;;4992837;28;20896;-59
2022/03/02 11:24:06;;;;;;;6.40;5.75;;;21.00;40.20;;;;;;4994103;28;20644;-58
2022/03/02 11:26:34;;;;;;;6.30;5.60;;;21.00;40.30;;;;;;4993614;28;20973;-57
2022/03/02 11:29:12;;;;;;;6.50;5.90;;;21.00;40.30;;;;;;4994467;28;20145;-59
2022/03/02 11:31:50;;;;;;;7.75;5.70;;;21.10;40.40;;;;;;4993183;28;20050;-58
2022/03/02 11:34:19;;;;;;;7.20;5.32;;;21.00;40.30;;;;;;5006514;28;20126;-57
2022/03/02 11:36:52;;;;;;;7.07;5.93;;;21.00;40.30;;;;;;4992726;28;20828;-58
2022/03/02 11:39:20;;;;;;;6.40;5.80;;;21.10;40.40;;;;;;4992997;28;20131;-58
2022/03/02 11:41:50;;;;;;;7.35;5.75;;;21.00;40.40;;;;;;4994155;28;20047;-58
2022/03/02 11:44:40;;;;;;;6.82;5.35;;;21.10;40.50;;;;;;4993137;28;20042;-59
2022/03/02 11:47:09;;;;;;;6.60;5.57;;;21.10;40.50;;;;;;4973317;28;20457;-57
2022/03/02 11:49:44;;;;;;;5.88;5.20;;;21.00;40.50;;;;;;4973008;28;20057;-57
2022/03/02 11:52:20;;;;;;;6.07;5.35;;;21.10;40.60;;;;;;4972691;28;20054;-57
2022/03/02 11:54:53;;;;;;;5.80;5.20;;;21.10;40.60;;;;;;4972281;28;20038;-57
2022/03/02 11:57:21;;;;;;;7.72;5.40;;;21.10;40.70;;;;;;4956454;28;20052;-56
2022/03/02 11:59:47;;;;;;;7.13;5.38;;;21.00;40.60;;;;;;4973464;28;20046;-57
2022/03/02 12:02:18;;;;;;;6.47;4.90;;;21.00;40.60;;;;;;4969632;28;20582;-57
2022/03/02 12:04:57;;;;;;;6.18;5.32;;;21.10;40.70;;;;;;4961901;28;20510;-58
2022/03/02 12:07:23;;;;;;;6.28;5.43;;;21.10;40.80;;;;;;4971033;28;20080;-60
2022/03/02 12:09:48;;;;;;;5.30;4.80;;;21.10;40.80;;;;;;4971869;28;20085;-58
2022/03/02 12:12:20;;;;;;;6.28;5.40;;;21.10;40.90;;;;;;4977319;28;20082;-60
2022/03/02 12:14:52;;;;;;;6.03;5.20;;;21.10;40.90;;;;;;4968048;28;20045;-59
2022/03/02 12:17:45;;;;;;;8.63;5.80;;;21.10;41.00;;;;;;4970584;28;20053;-59
2022/03/02 12:20:16;;;;;;;6.32;5.35;;;21.10;41.20;;;;;;4970623;28;20113;-59
2022/03/02 12:22:49;;;;;;;10.07;5.05;;;21.10;41.20;;;;;;4968874;28;20050;-60
2022/03/02 12:25:19;;;;;;;6.65;6.05;;;21.10;41.10;;;;;;4972522;28;20038;-60
2022/03/02 12:28:03;;;;;;;5.90;5.10;;;21.10;41.20;;;;;;4969461;28;20507;-59
2022/03/02 12:30:34;;;;;;;7.13;5.80;;;21.10;41.10;;;;;;4969362;28;20528;-58
2022/03/02 12:33:00;;;;;;;6.82;5.65;;;21.10;41.00;;;;;;4967362;28;20042;-59
2022/03/02 12:35:27;;;;;;;6.55;5.18;;;21.10;41.00;;;;;;4971650;28;20045;-58
2022/03/02 12:37:56;;;;;;;5.95;5.35;;;21.10;41.00;;;;;;4971339;28;20038;-59
2022/03/02 12:40:26;;;;;;;7.25;5.20;;;21.10;40.90;;;;;;4972263;28;20061;-58
2022/03/02 12:42:52;;;;;;;5.63;4.95;;;21.10;40.90;;;;;;4971412;28;20053;-59
2022/03/02 12:45:19;;;;;;;6.20;5.35;;;21.10;40.70;;;;;;4980441;28;20050;-59
2022/03/02 12:47:46;;;;;;;6.95;5.40;;;21.10;40.60;;;;;;4990421;28;20057;-60
2022/03/02 12:50:14;;;;;;;7.22;6.10;;;21.10;40.40;;;;;;5005107;28;20053;-59